sensor_id;sensor_type;location;lat;lon;timestamp;temperature;humidity
11126;DHT22;5617;54.046;10.676;2024-01-15T00:00:58;2.30;99.90
11126;DHT22;5617;54.046;10.676;2024-01-15T00:03:06;2.40;99.90
11126;DHT22;5617;54.046;10.676;2024-01-15T00:05:15;2.30;99.90
11126;DHT22;5617;54.046;10.676;2024-01-15T00:07:25;2.30;99.90
11126;DHT22;5617;54.046;10.676;2024-01-15T00:09:34;2.30;99.90
11126;DHT22;5617;54.046;10.676;2024-01-15T00:11:45;2.30;99.90
11126;DHT22;5617;54.046;10.676;2024-01-15T00:13:54;2.40;99.90
11126;DHT22;5617;54.046;10.676;2024-01-15T00:16:02;2.30;99.90
11126;DHT22;5617;54.046;10.676;2024-01-15T00:18:12;2.30;99.90
11126;DHT22;5617;54.046;10.676;2024-01-15T00:20:20;2.30;99.90
11126;DHT22;5617;54.046;10.676;2024-01-15T00:22:28;2.20;99.90
11126;DHT22;5617;54.046;10.676;2024-01-15T00:24:38;2.20;99.90
11126;DHT22;5617;54.046;10.676;2024-01-15T00:26:48;2.30;99.90
11126;DHT22;5617;54.046;10.676;2024-01-15T00:28:59;2.30;99.90
11126;DHT22;5617;54.046;10.676;2024-01-15T00:31:07;2.30;99.90
11126;DHT22;5617;54.046;10.676;2024-01-15T00:33:16;2.30;99.90
11126;DHT22;5617;54.046;10.676;2024-01-15T00:35:25;2.30;99.90
11126;DHT22;5617;54.046;10.676;2024-01-15T00:37:33;2.30;99.90
11126;DHT22;5617;54.046;10.676;2024-01-15T00:39:41;2.30;99.90
11126;DHT22;5617;54.046;10.676;2024-01-15T00:41:51;2.30;99.90
11126;DHT22;5617;54.046;10.676;2024-01-15T00:44:00;2.30;99.90
11126;DHT22;5617;54.046;10.676;2024-01-15T00:46:08;2.30;99.90
11126;DHT22;5617;54.046;10.676;2024-01-15T00:48:17;2.30;99.90
11126;DHT22;5617;54.046;10.676;2024-01-15T00:50:25;2.30;99.90
11126;DHT22;5617;54.046;10.676;2024-01-15T00:52:34;2.30;99.90
11126;DHT22;5617;54.046;10.676;2024-01-15T00:54:42;2.30;99.90
11126;DHT22;5617;54.046;10.676;2024-01-15T00:56:52;2.30;99.90
11126;DHT22;5617;54.046;10.676;2024-01-15T00:59:00;2.30;99.90
11126;DHT22;5617;54.046;10.676;2024-01-15T01:01:09;2.20;99.90
11126;DHT22;5617;54.046;10.676;2024-01-15T01:03:17;2.30;99.90
11126;DHT22;5617;54.046;10.676;2024-01-15T01:05:25;2.30;99.90
11126;DHT22;5617;54.046;10.676;2024-01-15T01:07:34;2.30;99.90
11126;DHT22;5617;54.046;10.676;2024-01-15T01:09:42;2.30;99.90
11126;DHT22;5617;54.046;10.676;2024-01-15T01:11:52;2.30;99.90
11126;DHT22;5617;54.046;10.676;2024-01-15T01:14:02;2.30;99.90
11126;DHT22;5617;54.046;10.676;2024-01-15T01:16:10;2.40;99.90
11126;DHT22;5617;54.046;10.676;2024-01-15T01:18:20;2.30;99.90
11126;DHT22;5617;54.046;10.676;2024-01-15T01:20:28;2.40;99.90
11126;DHT22;5617;54.046;10.676;2024-01-15T01:22:37;2.40;99.90
11126;DHT22;5617;54.046;10.676;2024-01-15T01:24:45;2.40;99.90
11126;DHT22;5617;54.046;10.676;2024-01-15T01:26:54;2.50;99.90
11126;DHT22;5617;54.046;10.676;2024-01-15T01:29:03;2.50;99.90
11126;DHT22;5617;54.046;10.676;2024-01-15T01:31:11;2.60;99.90
11126;DHT22;5617;54.046;10.676;2024-01-15T01:33:20;2.70;99.90
11126;DHT22;5617;54.046;10.676;2024-01-15T01:35:31;2.70;99.90
11126;DHT22;5617;54.046;10.676;2024-01-15T01:37:39;2.70;99.90
11126;DHT22;5617;54.046;10.676;2024-01-15T01:39:48;2.70;99.90
11126;DHT22;5617;54.046;10.676;2024-01-15T01:41:56;2.80;99.90
11126;DHT22;5617;54.046;10.676;2024-01-15T01:44:04;2.80;99.90
11126;DHT22;5617;54.046;10.676;2024-01-15T01:46:13;2.80;99.90
11126;DHT22;5617;54.046;10.676;2024-01-15T01:48:21;2.90;99.90
11126;DHT22;5617;54.046;10.676;2024-01-15T01:50:30;2.90;99.90
11126;DHT22;5617;54.046;10.676;2024-01-15T01:52:39;2.90;99.90
11126;DHT22;5617;54.046;10.676;2024-01-15T01:54:49;2.90;99.90
11126;DHT22;5617;54.046;10.676;2024-01-15T01:57:02;2.90;99.90
11126;DHT22;5617;54.046;10.676;2024-01-15T01:59:12;2.90;99.90
11126;DHT22;5617;54.046;10.676;2024-01-15T02:01:20;2.90;99.90
11126;DHT22;5617;54.046;10.676;2024-01-15T02:03:30;3.00;99.90
11126;DHT22;5617;54.046;10.676;2024-01-15T02:05:39;2.90;99.90
11126;DHT22;5617;54.046;10.676;2024-01-15T02:07:48;3.00;99.90
11126;DHT22;5617;54.046;10.676;2024-01-15T02:09:57;3.00;99.90
11126;DHT22;5617;54.046;10.676;2024-01-15T02:12:07;3.00;99.90
11126;DHT22;5617;54.046;10.676;2024-01-15T02:14:15;3.00;99.90
11126;DHT22;5617;54.046;10.676;2024-01-15T02:16:24;3.00;99.90
11126;DHT22;5617;54.046;10.676;2024-01-15T02:18:40;3.00;99.90
11126;DHT22;5617;54.046;10.676;2024-01-15T02:20:49;3.00;99.90
11126;DHT22;5617;54.046;10.676;2024-01-15T02:23:07;3.00;99.90
11126;DHT22;5617;54.046;10.676;2024-01-15T02:25:16;3.00;99.90
11126;DHT22;5617;54.046;10.676;2024-01-15T02:27:25;3.00;99.90
11126;DHT22;5617;54.046;10.676;2024-01-15T02:29:33;3.00;99.90
11126;DHT22;5617;54.046;10.676;2024-01-15T02:31:42;3.10;99.90
11126;DHT22;5617;54.046;10.676;2024-01-15T02:33:50;3.10;99.90
11126;DHT22;5617;54.046;10.676;2024-01-15T02:35:58;3.10;99.90
11126;DHT22;5617;54.046;10.676;2024-01-15T02:38:08;3.10;99.90
11126;DHT22;5617;54.046;10.676;2024-01-15T02:40:16;3.10;99.90
11126;DHT22;5617;54.046;10.676;2024-01-15T02:42:26;3.10;99.90
11126;DHT22;5617;54.046;10.676;2024-01-15T02:44:35;3.10;99.90
11126;DHT22;5617;54.046;10.676;2024-01-15T02:46:43;3.10;99.90
11126;DHT22;5617;54.046;10.676;2024-01-15T02:48:52;3.10;99.90
11126;DHT22;5617;54.046;10.676;2024-01-15T02:51:00;3.10;99.90
11126;DHT22;5617;54.046;10.676;2024-01-15T02:53:11;3.10;99.90
11126;DHT22;5617;54.046;10.676;2024-01-15T02:55:19;3.10;99.90
11126;DHT22;5617;54.046;10.676;2024-01-15T02:57:27;3.10;99.90
11126;DHT22;5617;54.046;10.676;2024-01-15T02:59:34;3.10;99.90
11126;DHT22;5617;54.046;10.676;2024-01-15T03:01:42;3.10;99.90
11126;DHT22;5617;54.046;10.676;2024-01-15T03:03:51;3.00;99.90
11126;DHT22;5617;54.046;10.676;2024-01-15T03:06:01;3.10;99.90
11126;DHT22;5617;54.046;10.676;2024-01-15T03:08:11;3.10;99.90
11126;DHT22;5617;54.046;10.676;2024-01-15T03:10:19;3.10;99.90
11126;DHT22;5617;54.046;10.676;2024-01-15T03:12:28;3.10;99.90
11126;DHT22;5617;54.046;10.676;2024-01-15T03:14:36;3.10;99.90
11126;DHT22;5617;54.046;10.676;2024-01-15T03:16:44;3.10;99.90
11126;DHT22;5617;54.046;10.676;2024-01-15T03:18:52;3.10;99.90
11126;DHT22;5617;54.046;10.676;2024-01-15T03:21:01;3.10;99.90
11126;DHT22;5617;54.046;10.676;2024-01-15T03:23:11;3.10;99.90
11126;DHT22;5617;54.046;10.676;2024-01-15T03:25:19;3.10;99.90
11126;DHT22;5617;54.046;10.676;2024-01-15T03:27:27;3.00;99.90
11126;DHT22;5617;54.046;10.676;2024-01-15T03:29:35;2.90;99.90
11126;DHT22;5617;54.046;10.676;2024-01-15T03:31:43;2.80;99.90
11126;DHT22;5617;54.046;10.676;2024-01-15T03:33:51;2.80;99.90
11126;DHT22;5617;54.046;10.676;2024-01-15T03:35:59;2.70;99.90
11126;DHT22;5617;54.046;10.676;2024-01-15T03:38:08;2.70;99.90
11126;DHT22;5617;54.046;10.676;2024-01-15T03:40:17;2.70;99.90
11126;DHT22;5617;54.046;10.676;2024-01-15T03:42:30;2.70;99.90
11126;DHT22;5617;54.046;10.676;2024-01-15T03:44:38;2.70;99.90
11126;DHT22;5617;54.046;10.676;2024-01-15T03:46:46;2.70;99.90
11126;DHT22;5617;54.046;10.676;2024-01-15T03:48:55;2.70;99.90
11126;DHT22;5617;54.046;10.676;2024-01-15T03:51:04;2.70;99.90
11126;DHT22;5617;54.046;10.676;2024-01-15T03:53:11;2.70;99.90
11126;DHT22;5617;54.046;10.676;2024-01-15T03:55:21;2.70;99.90
11126;DHT22;5617;54.046;10.676;2024-01-15T03:57:29;2.70;99.90
11126;DHT22;5617;54.046;10.676;2024-01-15T03:59:38;2.80;99.90
11126;DHT22;5617;54.046;10.676;2024-01-15T04:01:48;2.80;99.90
11126;DHT22;5617;54.046;10.676;2024-01-15T04:03:57;2.80;99.90
11126;DHT22;5617;54.046;10.676;2024-01-15T04:06:06;2.80;99.90
11126;DHT22;5617;54.046;10.676;2024-01-15T04:08:15;2.70;99.90
11126;DHT22;5617;54.046;10.676;2024-01-15T04:10:24;2.70;99.90
11126;DHT22;5617;54.046;10.676;2024-01-15T04:12:32;2.70;99.90
11126;DHT22;5617;54.046;10.676;2024-01-15T04:14:41;2.70;99.90
11126;DHT22;5617;54.046;10.676;2024-01-15T04:16:49;2.70;99.90
11126;DHT22;5617;54.046;10.676;2024-01-15T04:18:57;2.70;99.90
11126;DHT22;5617;54.046;10.676;2024-01-15T04:21:06;2.60;99.90
11126;DHT22;5617;54.046;10.676;2024-01-15T04:23:14;2.60;99.90
11126;DHT22;5617;54.046;10.676;2024-01-15T04:25:24;2.60;99.90
11126;DHT22;5617;54.046;10.676;2024-01-15T04:27:32;2.60;99.90
11126;DHT22;5617;54.046;10.676;2024-01-15T04:29:40;2.60;99.90
11126;DHT22;5617;54.046;10.676;2024-01-15T04:31:48;2.60;99.90
11126;DHT22;5617;54.046;10.676;2024-01-15T04:33:56;2.60;99.90
11126;DHT22;5617;54.046;10.676;2024-01-15T04:36:05;2.60;99.90
11126;DHT22;5617;54.046;10.676;2024-01-15T04:38:14;2.60;99.90
11126;DHT22;5617;54.046;10.676;2024-01-15T04:40:23;2.60;99.90
11126;DHT22;5617;54.046;10.676;2024-01-15T04:42:31;2.60;99.90
11126;DHT22;5617;54.046;10.676;2024-01-15T04:44:39;2.60;99.90
11126;DHT22;5617;54.046;10.676;2024-01-15T04:46:47;2.60;99.90
11126;DHT22;5617;54.046;10.676;2024-01-15T04:48:56;2.60;99.90
11126;DHT22;5617;54.046;10.676;2024-01-15T04:51:05;2.60;99.90
11126;DHT22;5617;54.046;10.676;2024-01-15T04:53:13;2.60;99.90
11126;DHT22;5617;54.046;10.676;2024-01-15T04:55:23;2.70;99.90
11126;DHT22;5617;54.046;10.676;2024-01-15T04:57:30;2.70;99.90
11126;DHT22;5617;54.046;10.676;2024-01-15T04:59:39;2.70;99.90
11126;DHT22;5617;54.046;10.676;2024-01-15T05:01:48;2.80;99.90
11126;DHT22;5617;54.046;10.676;2024-01-15T05:03:58;2.70;99.90
11126;DHT22;5617;54.046;10.676;2024-01-15T05:06:07;2.70;99.90
11126;DHT22;5617;54.046;10.676;2024-01-15T05:08:15;2.80;99.90
11126;DHT22;5617;54.046;10.676;2024-01-15T05:10:25;2.80;99.90
11126;DHT22;5617;54.046;10.676;2024-01-15T05:12:33;2.80;99.90
11126;DHT22;5617;54.046;10.676;2024-01-15T05:14:41;2.80;99.90
11126;DHT22;5617;54.046;10.676;2024-01-15T05:16:49;2.80;99.90
11126;DHT22;5617;54.046;10.676;2024-01-15T05:19:01;2.90;99.90
11126;DHT22;5617;54.046;10.676;2024-01-15T05:21:12;2.90;99.90
11126;DHT22;5617;54.046;10.676;2024-01-15T05:23:21;2.90;99.90
11126;DHT22;5617;54.046;10.676;2024-01-15T05:25:31;2.90;99.90
11126;DHT22;5617;54.046;10.676;2024-01-15T05:27:45;2.90;99.90
11126;DHT22;5617;54.046;10.676;2024-01-15T05:29:53;2.80;99.90
11126;DHT22;5617;54.046;10.676;2024-01-15T05:32:02;2.80;99.90
11126;DHT22;5617;54.046;10.676;2024-01-15T05:34:10;2.80;99.90
11126;DHT22;5617;54.046;10.676;2024-01-15T05:36:19;2.80;99.90
11126;DHT22;5617;54.046;10.676;2024-01-15T05:38:27;2.80;99.90
11126;DHT22;5617;54.046;10.676;2024-01-15T05:40:37;2.80;99.90
11126;DHT22;5617;54.046;10.676;2024-01-15T05:42:45;2.80;99.90
11126;DHT22;5617;54.046;10.676;2024-01-15T05:44:55;2.80;99.90
11126;DHT22;5617;54.046;10.676;2024-01-15T05:47:03;2.90;99.90
11126;DHT22;5617;54.046;10.676;2024-01-15T05:49:12;2.90;99.90
11126;DHT22;5617;54.046;10.676;2024-01-15T05:51:21;2.90;99.90
11126;DHT22;5617;54.046;10.676;2024-01-15T05:53:29;2.90;99.90
11126;DHT22;5617;54.046;10.676;2024-01-15T05:55:39;2.90;99.90
11126;DHT22;5617;54.046;10.676;2024-01-15T05:57:48;2.90;99.90
11126;DHT22;5617;54.046;10.676;2024-01-15T05:59:56;2.90;99.90
11126;DHT22;5617;54.046;10.676;2024-01-15T06:02:05;2.90;99.90
11126;DHT22;5617;54.046;10.676;2024-01-15T06:04:13;2.90;99.90
11126;DHT22;5617;54.046;10.676;2024-01-15T06:06:24;2.90;99.90
11126;DHT22;5617;54.046;10.676;2024-01-15T06:08:32;2.90;99.90
11126;DHT22;5617;54.046;10.676;2024-01-15T06:10:42;2.90;99.90
11126;DHT22;5617;54.046;10.676;2024-01-15T06:12:50;2.90;99.90
11126;DHT22;5617;54.046;10.676;2024-01-15T06:14:59;2.90;99.90
11126;DHT22;5617;54.046;10.676;2024-01-15T06:17:07;2.90;99.90
11126;DHT22;5617;54.046;10.676;2024-01-15T06:19:15;2.90;99.90
11126;DHT22;5617;54.046;10.676;2024-01-15T06:21:23;2.90;99.90
11126;DHT22;5617;54.046;10.676;2024-01-15T06:23:31;2.90;99.90
11126;DHT22;5617;54.046;10.676;2024-01-15T06:25:39;2.90;99.90
11126;DHT22;5617;54.046;10.676;2024-01-15T06:27:49;2.80;99.90
11126;DHT22;5617;54.046;10.676;2024-01-15T06:30:00;2.90;99.90
11126;DHT22;5617;54.046;10.676;2024-01-15T06:32:09;2.80;99.90
11126;DHT22;5617;54.046;10.676;2024-01-15T06:34:17;2.80;99.90
11126;DHT22;5617;54.046;10.676;2024-01-15T06:36:26;2.80;99.90
11126;DHT22;5617;54.046;10.676;2024-01-15T06:38:34;2.80;99.90
11126;DHT22;5617;54.046;10.676;2024-01-15T06:40:43;2.80;99.90
11126;DHT22;5617;54.046;10.676;2024-01-15T06:42:55;2.80;99.90
11126;DHT22;5617;54.046;10.676;2024-01-15T06:45:05;2.80;99.90
11126;DHT22;5617;54.046;10.676;2024-01-15T06:47:12;2.80;99.90
11126;DHT22;5617;54.046;10.676;2024-01-15T06:49:21;2.80;99.90
11126;DHT22;5617;54.046;10.676;2024-01-15T06:51:30;2.80;99.90
11126;DHT22;5617;54.046;10.676;2024-01-15T06:53:40;2.80;99.90
11126;DHT22;5617;54.046;10.676;2024-01-15T06:55:49;2.80;99.90
11126;DHT22;5617;54.046;10.676;2024-01-15T06:57:59;2.70;99.90
11126;DHT22;5617;54.046;10.676;2024-01-15T07:00:08;2.70;99.90
11126;DHT22;5617;54.046;10.676;2024-01-15T07:02:18;2.70;99.90
11126;DHT22;5617;54.046;10.676;2024-01-15T07:04:26;2.70;99.90
11126;DHT22;5617;54.046;10.676;2024-01-15T07:06:35;2.70;99.90
11126;DHT22;5617;54.046;10.676;2024-01-15T07:08:45;2.70;99.90
11126;DHT22;5617;54.046;10.676;2024-01-15T07:10:54;2.70;99.90
11126;DHT22;5617;54.046;10.676;2024-01-15T07:13:03;2.70;99.90
11126;DHT22;5617;54.046;10.676;2024-01-15T07:15:12;2.70;99.90
11126;DHT22;5617;54.046;10.676;2024-01-15T07:17:20;2.70;99.90
11126;DHT22;5617;54.046;10.676;2024-01-15T07:19:28;2.70;99.90
11126;DHT22;5617;54.046;10.676;2024-01-15T07:21:37;2.70;99.90
11126;DHT22;5617;54.046;10.676;2024-01-15T07:23:47;2.70;99.90
11126;DHT22;5617;54.046;10.676;2024-01-15T07:25:55;2.70;99.90
11126;DHT22;5617;54.046;10.676;2024-01-15T07:28:05;2.70;99.90
11126;DHT22;5617;54.046;10.676;2024-01-15T07:30:14;2.60;99.90
11126;DHT22;5617;54.046;10.676;2024-01-15T07:32:22;2.60;99.90
11126;DHT22;5617;54.046;10.676;2024-01-15T07:34:31;2.70;99.90
11126;DHT22;5617;54.046;10.676;2024-01-15T07:36:39;2.60;99.90
11126;DHT22;5617;54.046;10.676;2024-01-15T07:38:48;2.60;99.90
11126;DHT22;5617;54.046;10.676;2024-01-15T07:40:57;2.60;99.90
11126;DHT22;5617;54.046;10.676;2024-01-15T07:43:06;2.70;99.90
11126;DHT22;5617;54.046;10.676;2024-01-15T07:45:14;2.60;99.90
11126;DHT22;5617;54.046;10.676;2024-01-15T07:47:26;2.70;99.90
11126;DHT22;5617;54.046;10.676;2024-01-15T07:49:35;2.70;99.90
11126;DHT22;5617;54.046;10.676;2024-01-15T07:51:43;2.70;99.90
11126;DHT22;5617;54.046;10.676;2024-01-15T07:53:54;2.70;99.90
11126;DHT22;5617;54.046;10.676;2024-01-15T07:56:02;2.70;99.90
11126;DHT22;5617;54.046;10.676;2024-01-15T07:58:11;2.80;99.90
11126;DHT22;5617;54.046;10.676;2024-01-15T08:00:24;2.80;99.90
11126;DHT22;5617;54.046;10.676;2024-01-15T08:02:33;2.80;99.90
11126;DHT22;5617;54.046;10.676;2024-01-15T08:04:45;2.80;99.90
11126;DHT22;5617;54.046;10.676;2024-01-15T08:06:53;2.80;99.90
11126;DHT22;5617;54.046;10.676;2024-01-15T08:09:02;2.80;99.90
11126;DHT22;5617;54.046;10.676;2024-01-15T08:11:11;2.80;99.90
11126;DHT22;5617;54.046;10.676;2024-01-15T08:13:21;2.90;99.90
11126;DHT22;5617;54.046;10.676;2024-01-15T08:15:29;2.90;99.90
11126;DHT22;5617;54.046;10.676;2024-01-15T08:17:38;2.90;99.90
11126;DHT22;5617;54.046;10.676;2024-01-15T08:19:46;2.90;99.90
11126;DHT22;5617;54.046;10.676;2024-01-15T08:21:55;2.90;99.90
11126;DHT22;5617;54.046;10.676;2024-01-15T08:24:03;2.90;99.90
11126;DHT22;5617;54.046;10.676;2024-01-15T08:26:11;2.90;99.90
11126;DHT22;5617;54.046;10.676;2024-01-15T08:28:20;2.90;99.90
11126;DHT22;5617;54.046;10.676;2024-01-15T08:30:29;2.90;99.90
11126;DHT22;5617;54.046;10.676;2024-01-15T08:32:37;2.90;99.90
11126;DHT22;5617;54.046;10.676;2024-01-15T08:34:49;2.90;99.90
11126;DHT22;5617;54.046;10.676;2024-01-15T08:36:59;2.90;99.90
11126;DHT22;5617;54.046;10.676;2024-01-15T08:39:08;2.90;99.90
11126;DHT22;5617;54.046;10.676;2024-01-15T08:41:17;2.90;99.90
11126;DHT22;5617;54.046;10.676;2024-01-15T08:43:28;2.90;99.90
11126;DHT22;5617;54.046;10.676;2024-01-15T08:45:35;2.90;99.90
11126;DHT22;5617;54.046;10.676;2024-01-15T08:47:47;2.90;99.90
11126;DHT22;5617;54.046;10.676;2024-01-15T08:49:56;2.80;99.90
11126;DHT22;5617;54.046;10.676;2024-01-15T08:52:06;2.80;99.90
11126;DHT22;5617;54.046;10.676;2024-01-15T08:54:14;2.80;99.90
11126;DHT22;5617;54.046;10.676;2024-01-15T08:56:23;2.80;99.90
11126;DHT22;5617;54.046;10.676;2024-01-15T08:58:32;2.80;99.90
11126;DHT22;5617;54.046;10.676;2024-01-15T09:00:44;2.80;99.90
11126;DHT22;5617;54.046;10.676;2024-01-15T09:02:52;2.90;99.90
11126;DHT22;5617;54.046;10.676;2024-01-15T09:05:01;2.80;99.90
11126;DHT22;5617;54.046;10.676;2024-01-15T09:07:11;2.80;99.90
11126;DHT22;5617;54.046;10.676;2024-01-15T09:09:20;2.80;99.90
11126;DHT22;5617;54.046;10.676;2024-01-15T09:11:28;2.80;99.90
11126;DHT22;5617;54.046;10.676;2024-01-15T09:13:37;2.80;99.90
11126;DHT22;5617;54.046;10.676;2024-01-15T09:15:46;2.90;99.90
11126;DHT22;5617;54.046;10.676;2024-01-15T09:17:55;2.90;99.90
11126;DHT22;5617;54.046;10.676;2024-01-15T09:20:05;2.90;99.90
11126;DHT22;5617;54.046;10.676;2024-01-15T09:22:14;2.90;99.90
11126;DHT22;5617;54.046;10.676;2024-01-15T09:24:25;2.90;99.90
11126;DHT22;5617;54.046;10.676;2024-01-15T09:26:35;2.90;99.90
11126;DHT22;5617;54.046;10.676;2024-01-15T09:28:44;2.90;99.90
11126;DHT22;5617;54.046;10.676;2024-01-15T09:30:53;3.00;99.90
11126;DHT22;5617;54.046;10.676;2024-01-15T09:33:01;2.90;99.90
11126;DHT22;5617;54.046;10.676;2024-01-15T09:35:10;2.90;99.90
11126;DHT22;5617;54.046;10.676;2024-01-15T09:37:18;2.90;99.90
11126;DHT22;5617;54.046;10.676;2024-01-15T09:39:45;2.80;99.90
11126;DHT22;5617;54.046;10.676;2024-01-15T09:41:56;2.80;99.90
11126;DHT22;5617;54.046;10.676;2024-01-15T09:44:06;2.70;99.90
11126;DHT22;5617;54.046;10.676;2024-01-15T09:46:15;2.70;99.90
11126;DHT22;5617;54.046;10.676;2024-01-15T09:48:24;2.70;99.90
11126;DHT22;5617;54.046;10.676;2024-01-15T09:50:33;2.60;99.90
11126;DHT22;5617;54.046;10.676;2024-01-15T09:52:41;2.60;99.90
11126;DHT22;5617;54.046;10.676;2024-01-15T09:54:50;2.60;99.90
11126;DHT22;5617;54.046;10.676;2024-01-15T09:57:00;2.50;99.90
11126;DHT22;5617;54.046;10.676;2024-01-15T09:59:10;2.50;99.90
11126;DHT22;5617;54.046;10.676;2024-01-15T10:01:20;2.60;99.90
11126;DHT22;5617;54.046;10.676;2024-01-15T10:03:28;2.60;99.90
11126;DHT22;5617;54.046;10.676;2024-01-15T10:05:38;2.60;99.90
11126;DHT22;5617;54.046;10.676;2024-01-15T10:07:47;2.70;99.90
11126;DHT22;5617;54.046;10.676;2024-01-15T10:09:57;2.70;99.90
11126;DHT22;5617;54.046;10.676;2024-01-15T10:12:06;2.80;99.90
11126;DHT22;5617;54.046;10.676;2024-01-15T10:14:17;2.90;99.90
11126;DHT22;5617;54.046;10.676;2024-01-15T10:16:25;2.90;99.90
11126;DHT22;5617;54.046;10.676;2024-01-15T10:18:34;3.00;99.90
11126;DHT22;5617;54.046;10.676;2024-01-15T10:20:43;2.90;99.90
11126;DHT22;5617;54.046;10.676;2024-01-15T10:22:50;2.90;99.90
11126;DHT22;5617;54.046;10.676;2024-01-15T10:24:58;2.90;99.90
11126;DHT22;5617;54.046;10.676;2024-01-15T10:27:08;2.90;99.90
11126;DHT22;5617;54.046;10.676;2024-01-15T10:29:18;2.90;99.90
11126;DHT22;5617;54.046;10.676;2024-01-15T10:31:27;2.90;99.90
11126;DHT22;5617;54.046;10.676;2024-01-15T10:33:36;2.90;99.90
11126;DHT22;5617;54.046;10.676;2024-01-15T10:35:45;2.90;99.90
11126;DHT22;5617;54.046;10.676;2024-01-15T10:37:53;2.90;99.90
11126;DHT22;5617;54.046;10.676;2024-01-15T10:40:02;2.90;99.90
11126;DHT22;5617;54.046;10.676;2024-01-15T10:42:12;2.90;99.90
11126;DHT22;5617;54.046;10.676;2024-01-15T10:44:22;2.80;99.90
11126;DHT22;5617;54.046;10.676;2024-01-15T10:46:31;2.70;99.90
11126;DHT22;5617;54.046;10.676;2024-01-15T10:48:40;2.70;99.90
11126;DHT22;5617;54.046;10.676;2024-01-15T10:50:49;2.70;99.90
11126;DHT22;5617;54.046;10.676;2024-01-15T10:52:58;2.70;99.90
11126;DHT22;5617;54.046;10.676;2024-01-15T10:55:08;2.60;99.90
11126;DHT22;5617;54.046;10.676;2024-01-15T10:57:26;2.60;99.90
11126;DHT22;5617;54.046;10.676;2024-01-15T10:59:37;2.60;99.90
11126;DHT22;5617;54.046;10.676;2024-01-15T11:01:45;2.60;99.90
11126;DHT22;5617;54.046;10.676;2024-01-15T11:03:55;2.60;99.90
11126;DHT22;5617;54.046;10.676;2024-01-15T11:06:16;2.60;99.90
11126;DHT22;5617;54.046;10.676;2024-01-15T11:08:25;2.60;99.90
11126;DHT22;5617;54.046;10.676;2024-01-15T11:10:41;2.60;99.90
11126;DHT22;5617;54.046;10.676;2024-01-15T11:12:50;2.60;99.90
11126;DHT22;5617;54.046;10.676;2024-01-15T11:15:03;2.60;99.90
11126;DHT22;5617;54.046;10.676;2024-01-15T11:17:16;2.60;99.90
11126;DHT22;5617;54.046;10.676;2024-01-15T11:19:24;2.70;99.90
11126;DHT22;5617;54.046;10.676;2024-01-15T11:21:42;2.70;99.90
11126;DHT22;5617;54.046;10.676;2024-01-15T11:23:53;2.60;99.90
11126;DHT22;5617;54.046;10.676;2024-01-15T11:26:30;2.60;99.90
11126;DHT22;5617;54.046;10.676;2024-01-15T11:28:58;2.60;99.90
11126;DHT22;5617;54.046;10.676;2024-01-15T11:31:07;2.60;99.90
11126;DHT22;5617;54.046;10.676;2024-01-15T11:33:32;2.60;99.90
11126;DHT22;5617;54.046;10.676;2024-01-15T11:35:50;2.70;99.90
11126;DHT22;5617;54.046;10.676;2024-01-15T11:37:59;2.70;99.90
11126;DHT22;5617;54.046;10.676;2024-01-15T11:40:07;2.70;99.90
11126;DHT22;5617;54.046;10.676;2024-01-15T11:42:19;2.70;99.90
11126;DHT22;5617;54.046;10.676;2024-01-15T11:44:29;2.80;99.90
11126;DHT22;5617;54.046;10.676;2024-01-15T11:46:41;2.80;99.90
11126;DHT22;5617;54.046;10.676;2024-01-15T11:49:03;2.80;99.90
11126;DHT22;5617;54.046;10.676;2024-01-15T11:51:12;2.80;99.90
11126;DHT22;5617;54.046;10.676;2024-01-15T11:53:27;2.80;99.90
11126;DHT22;5617;54.046;10.676;2024-01-15T11:55:41;2.80;99.90
11126;DHT22;5617;54.046;10.676;2024-01-15T11:57:53;2.90;99.90
11126;DHT22;5617;54.046;10.676;2024-01-15T12:00:02;2.70;99.90
11126;DHT22;5617;54.046;10.676;2024-01-15T12:02:13;2.70;99.90
11126;DHT22;5617;54.046;10.676;2024-01-15T12:04:21;2.70;99.90
11126;DHT22;5617;54.046;10.676;2024-01-15T12:06:30;2.60;99.90
11126;DHT22;5617;54.046;10.676;2024-01-15T12:08:38;2.60;99.90
11126;DHT22;5617;54.046;10.676;2024-01-15T12:10:45;2.50;99.90
11126;DHT22;5617;54.046;10.676;2024-01-15T12:12:57;2.40;99.90
11126;DHT22;5617;54.046;10.676;2024-01-15T12:15:06;2.40;99.90
11126;DHT22;5617;54.046;10.676;2024-01-15T12:17:16;2.40;99.90
11126;DHT22;5617;54.046;10.676;2024-01-15T12:19:25;2.50;99.90
11126;DHT22;5617;54.046;10.676;2024-01-15T12:21:33;2.70;99.90
11126;DHT22;5617;54.046;10.676;2024-01-15T12:23:42;2.80;99.90
11126;DHT22;5617;54.046;10.676;2024-01-15T12:25:50;3.00;99.90
11126;DHT22;5617;54.046;10.676;2024-01-15T12:28:02;3.20;99.90
11126;DHT22;5617;54.046;10.676;2024-01-15T12:30:11;3.40;99.90
11126;DHT22;5617;54.046;10.676;2024-01-15T12:32:22;3.40;99.90
11126;DHT22;5617;54.046;10.676;2024-01-15T12:34:31;3.50;99.90
11126;DHT22;5617;54.046;10.676;2024-01-15T12:36:40;3.60;99.90
11126;DHT22;5617;54.046;10.676;2024-01-15T12:38:52;3.80;99.90
11126;DHT22;5617;54.046;10.676;2024-01-15T12:41:00;3.90;99.90
11126;DHT22;5617;54.046;10.676;2024-01-15T12:43:10;4.00;99.90
11126;DHT22;5617;54.046;10.676;2024-01-15T12:45:18;4.10;99.90
11126;DHT22;5617;54.046;10.676;2024-01-15T12:47:27;4.10;99.90
11126;DHT22;5617;54.046;10.676;2024-01-15T12:49:36;4.10;99.90
11126;DHT22;5617;54.046;10.676;2024-01-15T12:51:52;4.20;99.90
11126;DHT22;5617;54.046;10.676;2024-01-15T12:54:01;4.10;99.90
11126;DHT22;5617;54.046;10.676;2024-01-15T12:56:09;4.10;99.90
11126;DHT22;5617;54.046;10.676;2024-01-15T12:58:17;4.10;99.90
11126;DHT22;5617;54.046;10.676;2024-01-15T13:00:29;4.00;99.90
11126;DHT22;5617;54.046;10.676;2024-01-15T13:02:39;3.90;99.90
11126;DHT22;5617;54.046;10.676;2024-01-15T13:04:51;3.90;99.90
11126;DHT22;5617;54.046;10.676;2024-01-15T13:07:01;3.90;99.90
11126;DHT22;5617;54.046;10.676;2024-01-15T13:09:10;3.90;99.90
11126;DHT22;5617;54.046;10.676;2024-01-15T13:11:18;3.80;99.90
11126;DHT22;5617;54.046;10.676;2024-01-15T13:13:26;3.70;99.90
11126;DHT22;5617;54.046;10.676;2024-01-15T13:15:35;3.60;99.90
11126;DHT22;5617;54.046;10.676;2024-01-15T13:17:45;3.50;99.90
11126;DHT22;5617;54.046;10.676;2024-01-15T13:19:53;3.50;99.90
11126;DHT22;5617;54.046;10.676;2024-01-15T13:22:02;3.50;99.90
11126;DHT22;5617;54.046;10.676;2024-01-15T13:24:15;3.50;99.90
11126;DHT22;5617;54.046;10.676;2024-01-15T13:26:24;3.60;99.90
11126;DHT22;5617;54.046;10.676;2024-01-15T13:28:33;3.70;99.90
11126;DHT22;5617;54.046;10.676;2024-01-15T13:30:42;3.80;99.90
11126;DHT22;5617;54.046;10.676;2024-01-15T13:32:52;3.90;99.90
11126;DHT22;5617;54.046;10.676;2024-01-15T13:35:01;3.90;99.90
11126;DHT22;5617;54.046;10.676;2024-01-15T13:37:12;4.00;99.90
11126;DHT22;5617;54.046;10.676;2024-01-15T13:39:21;4.00;99.90
11126;DHT22;5617;54.046;10.676;2024-01-15T13:41:29;3.90;99.90
11126;DHT22;5617;54.046;10.676;2024-01-15T13:43:37;3.80;99.90
11126;DHT22;5617;54.046;10.676;2024-01-15T13:45:46;3.70;99.90
11126;DHT22;5617;54.046;10.676;2024-01-15T13:47:56;3.60;99.90
11126;DHT22;5617;54.046;10.676;2024-01-15T13:50:06;3.50;99.90